Time;durP1;ratioP1;P1;durP2;ratioP2;P2;SDS_P1;SDS_P2;PMS_P1;PMS_P2;Temp;Humidity;BMP_temperature;BMP_pressure;BME280_temperature;BME280_humidity;BME280_pressure;Samples;Min_cycle;Max_cycle;Signal;HPM_P1;HPM_P2
2022/07/31 00:01:25;;;;;;;9.38;8.38;;;;;;;18.12;77.41;96557.41;1782309;80;27961;-76
2022/07/31 00:03:52;;;;;;;8.93;8.03;;;;;;;18.08;77.37;96556.36;1782472;79;25223;-76
2022/07/31 00:06:18;;;;;;;9.65;8.13;;;;;;;18.05;77.40;96552.81;1782435;80;25682;-76
2022/07/31 00:08:45;;;;;;;9.40;8.40;;;;;;;18.03;77.35;96553.64;1782496;79;25976;-76
2022/07/31 00:11:11;;;;;;;8.68;7.87;;;;;;;18.02;77.38;96553.37;1782532;79;25733;-76
2022/07/31 00:13:38;;;;;;;8.33;7.53;;;;;;;18.02;77.39;96554.73;1782441;79;27367;-76
2022/07/31 00:16:04;;;;;;;8.40;7.60;;;;;;;18.04;77.40;96551.17;1786754;80;25621;-76
2022/07/31 00:18:34;;;;;;;8.60;7.80;;;;;;;18.03;77.25;96548.72;1793472;80;25902;-77
2022/07/31 00:21:02;;;;;;;8.83;7.92;;;;;;;17.99;77.21;96550.64;1793415;80;26754;-76
2022/07/31 00:23:29;;;;;;;7.90;7.12;;;;;;;17.97;77.19;96554.77;1729732;82;25745;-76
2022/07/31 00:25:56;;;;;;;9.90;8.08;;;;;;;17.98;77.24;96555.04;1729419;82;28228;-76
2022/07/31 00:28:22;;;;;;;9.60;8.68;;;;;;;18.00;77.25;96554.19;1729610;82;25312;-76
2022/07/31 00:30:49;;;;;;;9.30;8.30;;;;;;;17.98;77.31;96546.30;1729672;82;26876;-77
2022/07/31 00:33:15;;;;;;;8.95;8.08;;;;;;;17.99;77.42;96548.48;1729901;82;26861;-76
2022/07/31 00:35:42;;;;;;;11.18;8.63;;;;;;;17.99;77.52;96547.13;1729659;82;26447;-77
2022/07/31 00:38:09;;;;;;;10.05;8.03;;;;;;;18.00;77.63;96547.36;1729773;82;27364;-76
2022/07/31 00:40:36;;;;;;;9.55;8.25;;;;;;;17.91;77.57;96540.85;1729665;82;25923;-76
2022/07/31 00:43:03;;;;;;;9.43;8.53;;;;;;;17.90;77.60;96550.13;1725473;82;25814;-76
2022/07/31 00:45:30;;;;;;;9.10;8.20;;;;;;;17.90;77.69;96546.04;1729721;82;26733;-76
2022/07/31 00:47:56;;;;;;;9.90;8.58;;;;;;;17.88;77.81;96547.67;1729700;82;25782;-76
2022/07/31 00:50:23;;;;;;;9.15;8.08;;;;;;;17.87;77.89;96552.08;1729703;82;27416;-77
2022/07/31 00:52:50;;;;;;;8.40;7.50;;;;;;;17.81;77.85;96553.17;1729690;82;25806;-76
2022/07/31 00:55:16;;;;;;;8.20;7.40;;;;;;;17.76;77.86;96547.72;1729826;82;25790;-76
2022/07/31 00:57:43;;;;;;;9.55;7.62;;;;;;;17.76;77.87;96547.72;1729904;82;26576;-76
2022/07/31 01:00:12;;;;;;;11.55;8.40;;;;;;;17.78;77.94;96543.63;1729821;82;25776;-76
2022/07/31 01:02:38;;;;;;;9.80;8.13;;;;;;;17.77;77.95;96552.91;1729712;82;27350;-76
2022/07/31 01:05:06;;;;;;;9.28;8.38;;;;;;;17.78;78.10;96550.99;1729689;82;25746;-76
2022/07/31 01:07:32;;;;;;;9.63;8.73;;;;;;;17.79;78.17;96551.27;1729762;82;25722;-76
2022/07/31 01:10:04;;;;;;;8.90;7.85;;;;;;;17.77;78.21;96552.08;1729608;82;26029;-75
2022/07/31 01:12:53;;;;;;;11.40;8.43;;;;;;;17.75;78.25;96543.38;1729744;82;25304;-76
2022/07/31 01:15:20;;;;;;;10.60;8.08;;;;;;;17.74;78.29;96541.75;1686885;83;27433;-76
2022/07/31 01:17:50;;;;;;;9.23;8.33;;;;;;;17.75;78.43;96550.20;1643083;87;25802;-76
2022/07/31 01:20:17;;;;;;;9.55;8.65;;;;;;;17.72;78.49;96548.84;1707292;82;25843;-75
2022/07/31 01:23:19;;;;;;;9.43;8.53;;;;;;;17.67;78.53;96546.66;1701768;84;25983;-75
2022/07/31 01:26:07;;;;;;;9.20;8.35;;;;;;;17.69;78.52;96549.94;1727631;82;25813;-75
2022/07/31 01:29:02;;;;;;;9.40;8.50;;;;;;;17.72;78.54;96546.66;1731076;82;27386;-75
2022/07/31 01:31:37;;;;;;;8.98;7.87;;;;;;;17.73;78.47;96545.56;1712421;83;25819;-75
2022/07/31 01:34:11;;;;;;;8.80;7.95;;;;;;;17.73;78.33;96549.66;1690088;84;25724;-75
2022/07/31 01:36:43;;;;;;;9.33;8.15;;;;;;;17.73;78.25;96542.84;1676747;85;26957;-76
2022/07/31 01:39:11;;;;;;;9.18;8.25;;;;;;;17.73;78.25;96546.93;1693753;84;25731;-75
2022/07/31 01:41:42;;;;;;;9.78;7.60;;;;;;;17.73;78.14;96540.11;1761447;81;27373;-75
2022/07/31 01:44:12;;;;;;;9.10;8.20;;;;;;;17.71;78.25;96542.30;1761409;81;25816;-75
2022/07/31 01:46:39;;;;;;;10.25;8.65;;;;;;;17.73;78.28;96542.84;1761757;81;25923;-76
2022/07/31 01:49:08;;;;;;;10.53;8.15;;;;;;;17.68;78.52;96537.38;1761463;81;26707;-75
2022/07/31 01:51:37;;;;;;;9.53;7.60;;;;;;;17.68;78.45;96538.75;1761465;81;25813;-76
2022/07/31 01:54:04;;;;;;;9.08;8.13;;;;;;;17.68;78.45;96536.84;1761244;81;27429;-75
2022/07/31 01:56:34;;;;;;;8.50;7.65;;;;;;;17.69;78.35;96537.11;1761464;81;25828;-76
2022/07/31 01:59:01;;;;;;;9.68;8.33;;;;;;;17.70;78.37;96538.74;1761533;81;25741;-76
2022/07/31 02:01:29;;;;;;;9.13;8.20;;;;;;;17.69;78.40;96533.02;1736201;81;26053;-75
2022/07/31 02:03:58;;;;;;;10.28;7.80;;;;;;;17.68;78.47;96542.84;1761562;81;26565;-76
2022/07/31 02:06:26;;;;;;;8.73;7.92;;;;;;;17.67;78.62;96536.56;1761570;81;28010;-76
2022/07/31 02:08:54;;;;;;;8.85;7.95;;;;;;;17.68;78.69;96529.19;1759203;81;25814;-76
2022/07/31 02:11:21;;;;;;;11.15;7.62;;;;;;;17.67;78.78;96530.28;1720608;83;25727;-76
2022/07/31 02:13:49;;;;;;;10.20;7.55;;;;;;;17.66;78.82;96524.55;1720552;83;25803;-76
2022/07/31 02:16:17;;;;;;;7.65;6.92;;;;;;;17.60;78.75;96516.38;1720515;83;25875;-76
2022/07/31 02:18:48;;;;;;;7.95;7.15;;;;;;;17.56;78.80;96520.73;1720457;83;28354;-76
2022/07/31 02:21:15;;;;;;;6.62;5.92;;;;;;;17.53;78.77;96525.92;1720532;83;25974;-76
2022/07/31 02:23:42;;;;;;;7.83;6.37;;;;;;;17.52;78.86;96526.47;1720325;83;25695;-76
2022/07/31 02:26:09;;;;;;;7.12;6.00;;;;;;;17.49;78.84;96519.41;1720706;83;25981;-76
2022/07/31 02:28:40;;;;;;;6.97;6.30;;;;;;;17.48;78.95;96515.86;1720595;83;25609;-76
2022/07/31 02:31:10;;;;;;;7.28;5.92;;;;;;;17.51;78.93;96519.95;1775687;79;27529;-76
2022/07/31 02:33:40;;;;;;;8.05;6.67;;;;;;;17.48;78.95;96519.13;1808580;79;25927;-76
2022/07/31 02:36:10;;;;;;;7.50;6.50;;;;;;;17.45;79.07;96520.49;1808617;79;25239;-76
2022/07/31 02:38:38;;;;;;;6.50;5.62;;;;;;;17.47;79.10;96521.04;1808520;79;26678;-76
2022/07/31 02:41:06;;;;;;;6.20;5.62;;;;;;;17.46;78.96;96507.12;1808834;79;25693;-76
2022/07/31 02:43:34;;;;;;;8.40;5.22;;;;;;;17.47;78.98;96513.40;1808622;79;28214;-76
2022/07/31 02:46:02;;;;;;;9.15;5.03;;;;;;;17.48;78.98;96512.31;1808769;79;26158;-76
2022/07/31 02:48:30;;;;;;;6.65;4.78;;;;;;;17.44;79.08;96506.58;1808875;79;25702;-76
2022/07/31 02:50:57;;;;;;;7.30;5.05;;;;;;;17.42;78.96;96503.30;1808844;79;26599;-76
2022/07/31 02:53:25;;;;;;;7.22;5.45;;;;;;;17.41;79.09;96497.58;1808811;79;25721;-76
2022/07/31 02:55:53;;;;;;;6.95;5.28;;;;;;;17.38;79.18;96495.42;1808681;79;27437;-76
2022/07/31 02:58:19;;;;;;;5.83;5.22;;;;;;;17.35;79.26;96495.97;1808654;79;25771;-76
2022/07/31 03:00:46;;;;;;;6.40;4.87;;;;;;;17.37;79.35;96493.79;1808685;79;25247;-76
2022/07/31 03:03:12;;;;;;;4.72;4.28;;;;;;;17.37;79.36;96489.70;1808749;79;26036;-76
2022/07/31 03:05:39;;;;;;;4.72;4.33;;;;;;;17.39;79.38;96491.58;1808974;79;25709;-76
2022/07/31 03:08:05;;;;;;;4.60;4.20;;;;;;;17.41;79.37;96490.76;1808755;79;27405;-76
2022/07/31 03:10:32;;;;;;;4.47;4.08;;;;;;;17.42;79.35;96486.94;1808400;79;25658;-76
2022/07/31 03:13:02;;;;;;;4.50;3.27;;;;;;;17.42;79.35;96488.84;1808724;79;25645;-76
2022/07/31 03:15:31;;;;;;;3.70;3.40;;;;;;;17.36;79.35;96490.78;1808656;79;25991;-76
2022/07/31 03:17:58;;;;;;;6.72;3.90;;;;;;;17.37;79.44;96493.79;1811129;79;25744;-76
2022/07/31 03:20:26;;;;;;;5.12;3.37;;;;;;;17.36;79.50;96485.33;1811604;79;27460;-76
2022/07/31 03:22:53;;;;;;;4.58;3.60;;;;;;;17.37;79.58;96486.15;1811720;79;25719;-76
2022/07/31 03:25:19;;;;;;;4.37;3.50;;;;;;;17.38;79.63;96484.52;1811890;79;25793;-76
2022/07/31 03:27:47;;;;;;;5.80;2.92;;;;;;;17.39;79.63;96484.75;1811933;79;26019;-76
2022/07/31 03:30:18;;;;;;;4.58;3.10;;;;;;;17.40;79.76;96480.94;1811838;79;25649;-76
2022/07/31 03:32:45;;;;;;;6.30;3.30;;;;;;;17.37;79.66;96476.06;1811799;79;27463;-76
2022/07/31 03:35:11;;;;;;;4.87;3.25;;;;;;;17.38;79.73;96484.52;1811887;79;25649;-76
2022/07/31 03:37:37;;;;;;;4.40;3.17;;;;;;;17.37;79.73;96478.78;1811388;79;25745;-76
2022/07/31 03:40:05;;;;;;;3.60;3.30;;;;;;;17.38;79.79;96483.70;1811855;79;26029;-76
2022/07/31 03:42:32;;;;;;;4.78;3.70;;;;;;;17.36;79.82;96481.23;1811817;79;25643;-76
2022/07/31 03:44:59;;;;;;;5.15;4.65;;;;;;;17.37;79.84;96483.42;1811453;79;28232;-76
2022/07/31 03:47:26;;;;;;;9.08;5.08;;;;;;;17.36;79.83;96483.97;1811702;79;25649;-76
2022/07/31 03:49:53;;;;;;;6.58;4.92;;;;;;;17.36;79.73;96477.15;1811877;79;25686;-75
2022/07/31 03:52:20;;;;;;;6.53;5.10;;;;;;;17.37;79.75;96482.06;1811478;79;53853;-75
2022/07/31 03:54:47;;;;;;;6.28;5.22;;;;;;;17.38;79.76;96480.97;1811972;79;25728;-74
2022/07/31 03:57:16;;;;;;;6.55;5.25;;;;;;;17.39;79.76;96480.66;1811416;79;27410;-75
2022/07/31 03:59:43;;;;;;;6.83;5.58;;;;;;;17.37;79.76;96474.69;1812002;79;25408;-75
2022/07/31 04:02:10;;;;;;;6.20;5.58;;;;;;;17.38;79.79;96479.60;1811985;79;26316;-75
2022/07/31 04:04:37;;;;;;;6.65;5.55;;;;;;;17.40;79.82;96480.12;1812015;79;26012;-75
2022/07/31 04:07:05;;;;;;;7.72;6.03;;;;;;;17.43;79.77;96478.20;1811979;79;25828;-76
2022/07/31 04:09:31;;;;;;;6.67;5.75;;;;;;;17.43;79.67;96480.39;1811832;79;27379;-76
2022/07/31 04:11:58;;;;;;;7.92;5.70;;;;;;;17.44;79.58;96479.30;1811824;79;25668;-76
2022/07/31 04:14:24;;;;;;;7.72;5.83;;;;;;;17.44;79.59;96486.66;1811952;79;25695;-75
2022/07/31 04:16:51;;;;;;;6.60;5.30;;;;;;;17.44;79.51;96486.12;1811991;79;26583;-76
2022/07/31 04:19:18;;;;;;;6.92;5.30;;;;;;;17.45;79.48;96487.75;1812054;79;25440;-75
2022/07/31 04:21:45;;;;;;;6.00;5.42;;;;;;;17.40;79.47;96484.21;1811780;79;27609;-76
2022/07/31 04:24:15;;;;;;;7.15;5.37;;;;;;;17.39;79.57;96494.87;1811895;79;25760;-75
2022/07/31 04:26:39;;;;;;;6.05;5.45;;;;;;;17.39;79.67;96495.66;1811878;79;25669;-75
2022/07/31 04:29:06;;;;;;;5.65;5.15;;;;;;;17.38;79.71;96492.70;1812077;79;26800;-75
2022/07/31 04:31:33;;;;;;;5.70;5.20;;;;;;;17.38;79.83;96495.42;1812074;79;25661;-75
2022/07/31 04:33:59;;;;;;;7.28;5.20;;;;;;;17.37;79.94;96491.06;1812000;79;27503;-75
2022/07/31 04:36:25;;;;;;;5.45;4.67;;;;;;;17.39;79.94;96494.30;1811937;79;25860;-75
2022/07/31 04:38:52;;;;;;;3.72;3.40;;;;;;;17.38;79.94;96495.42;1812032;79;25744;-76
2022/07/31 04:41:18;;;;;;;4.37;3.98;;;;;;;17.39;79.97;96499.76;1811866;79;25956;-75
2022/07/31 04:43:45;;;;;;;5.37;4.35;;;;;;;17.42;79.86;96495.67;1812036;79;25694;-76
2022/07/31 04:46:11;;;;;;;5.10;4.55;;;;;;;17.44;79.81;96499.77;1812227;79;27971;-75
2022/07/31 04:48:38;;;;;;;4.78;4.10;;;;;;;17.46;79.81;96500.30;1812001;79;25674;-75
2022/07/31 04:51:04;;;;;;;2.83;2.58;;;;;;;17.48;79.75;96494.58;1812180;78;25677;-75
2022/07/31 04:53:32;;;;;;;3.15;2.42;;;;;;;17.47;79.65;96496.48;1812079;79;26035;-76
2022/07/31 04:58:43;;;;;;;4.92;3.17;;;;;;;17.49;79.35;96498.39;1811914;79;28415;-75
2022/07/31 05:01:09;;;;;;;4.95;4.10;;;;;;;17.48;79.11;96500.84;1811643;79;25633;-76
2022/07/31 05:03:36;;;;;;;2.55;1.92;;;;;;;17.47;79.03;96500.58;1812036;79;25654;-75
2022/07/31 05:06:10;;;;;;;4.47;1.30;;;;;;;17.46;78.84;96500.30;1812109;79;25926;-75
2022/07/31 05:08:37;;;;;;;1.52;1.42;;;;;;;17.47;78.85;96507.40;1812136;79;25703;-75
2022/07/31 05:11:22;;;;;;;5.42;4.87;;;;;;;17.47;78.83;96510.13;1811992;79;27393;-75
2022/07/31 05:13:57;;;;;;;7.58;4.67;;;;;;;17.48;78.81;96517.22;1811914;79;25785;-75
2022/07/31 05:16:26;;;;;;;2.60;2.40;;;;;;;17.49;78.79;96516.67;1812043;79;25227;-75
2022/07/31 05:18:53;;;;;;;0.90;0.90;;;;;;;17.52;78.72;96524.28;1811696;79;25972;-75
2022/07/31 05:21:20;;;;;;;1.25;0.70;;;;;;;17.53;78.56;96530.02;1812073;79;25763;-74
2022/07/31 05:23:48;;;;;;;0.78;0.70;;;;;;;17.49;78.43;96531.68;1811999;79;27366;-75
2022/07/31 05:26:17;;;;;;;1.05;0.95;;;;;;;17.48;78.44;96534.95;1812081;79;25817;-76
2022/07/31 05:28:44;;;;;;;1.17;0.60;;;;;;;17.43;78.29;96534.13;1812025;79;25674;-74
2022/07/31 05:31:11;;;;;;;0.45;0.45;;;;;;;17.40;78.32;96540.95;1811890;79;25996;-73
2022/07/31 05:33:38;;;;;;;0.60;0.60;;;;;;;17.36;78.30;96534.44;1812174;79;25168;-75
2022/07/31 05:36:05;;;;;;;1.05;0.40;;;;;;;17.31;78.27;96541.25;1812092;79;27419;-75
2022/07/31 05:38:33;;;;;;;0.40;0.40;;;;;;;17.31;78.34;96537.70;1811950;79;25755;-75
2022/07/31 05:40:59;;;;;;;0.62;0.37;;;;;;;17.32;78.32;96543.42;1812028;79;26003;-76
2022/07/31 05:43:26;;;;;;;2.50;0.30;;;;;;;17.31;78.34;96548.06;1812028;79;26731;-75
2022/07/31 05:45:53;;;;;;;0.62;0.30;;;;;;;17.29;78.27;96551.61;1812116;79;25721;-75
2022/07/31 05:48:20;;;;;;;0.50;0.50;;;;;;;17.27;78.38;96555.97;1811995;79;27419;-75
2022/07/31 05:50:49;;;;;;;1.85;0.33;;;;;;;17.26;78.46;96558.45;1811963;79;25731;-74
2022/07/31 05:53:17;;;;;;;0.40;0.40;;;;;;;17.26;78.51;96544.81;1812073;79;25721;-75
2022/07/31 05:55:46;;;;;;;0.33;0.30;;;;;;;17.25;78.49;96544.54;1811818;79;26779;-75
2022/07/31 05:58:14;;;;;;;0.95;0.57;;;;;;;17.27;78.50;96548.33;1811758;79;25673;-76
2022/07/31 06:00:42;;;;;;;1.45;0.50;;;;;;;17.30;78.55;96546.42;1811995;79;27368;-76
2022/07/31 06:03:10;;;;;;;2.58;0.65;;;;;;;17.32;78.51;96548.34;1811848;79;25776;-75
2022/07/31 06:05:38;;;;;;;0.40;0.40;;;;;;;17.34;78.52;96551.61;1812042;79;25227;-76
2022/07/31 06:08:05;;;;;;;0.62;0.62;;;;;;;17.32;78.58;96550.25;1812118;79;26834;-76
2022/07/31 06:10:32;;;;;;;1.25;0.60;;;;;;;17.34;78.66;96554.34;1812050;79;25717;-76
2022/07/31 06:12:59;;;;;;;0.40;0.40;;;;;;;17.34;78.56;96559.80;1812019;79;27319;-76
2022/07/31 06:15:25;;;;;;;3.10;0.50;;;;;;;17.32;78.58;96553.80;1812022;79;25287;-76
2022/07/31 06:17:52;;;;;;;1.87;0.60;;;;;;;17.31;78.56;96558.16;1811934;79;25888;-76
2022/07/31 06:20:19;;;;;;;2.27;0.60;;;;;;;17.27;78.59;96560.60;1811878;79;26267;-76
2022/07/31 06:22:45;;;;;;;0.60;0.60;;;;;;;17.25;78.81;96569.09;1812099;79;25661;-76
2022/07/31 06:25:12;;;;;;;0.50;0.50;;;;;;;17.20;78.90;96567.72;1811928;79;28204;-76
2022/07/31 06:27:38;;;;;;;1.67;0.60;;;;;;;17.20;79.00;96571.80;1811869;79;25700;-76
2022/07/31 06:30:07;;;;;;;0.68;0.57;;;;;;;17.22;78.98;96575.08;1812089;79;25238;-76
2022/07/31 06:32:34;;;;;;;0.30;0.30;;;;;;;17.21;79.60;96571.27;1812115;79;26059;-76
2022/07/31 06:35:01;;;;;;;0.57;0.30;;;;;;;17.17;79.35;96577.80;1811982;79;25642;-76
2022/07/31 06:37:28;;;;;;;0.30;0.30;;;;;;;17.16;79.16;96578.06;1811770;78;28241;-76
2022/07/31 06:39:54;;;;;;;0.20;0.20;;;;;;;17.13;79.21;96582.18;1811793;79;25635;-76
2022/07/31 06:42:22;;;;;;;0.20;0.20;;;;;;;17.14;79.00;96581.09;1811923;79;25677;-76
2022/07/31 06:44:49;;;;;;;0.10;0.10;;;;;;;17.14;79.11;96583.00;1811812;79;25688;-75
2022/07/31 06:47:20;;;;;;;0.47;0.25;;;;;;;17.11;78.84;96593.90;1812020;78;25814;-76
2022/07/31 06:49:47;;;;;;;0.40;0.40;;;;;;;17.11;78.84;96590.36;1746443;80;27375;-75
2022/07/31 06:52:14;;;;;;;0.30;0.20;;;;;;;17.13;78.82;96589.00;1752224;81;25827;-76
2022/07/31 06:54:42;;;;;;;0.30;0.30;;;;;;;17.18;78.70;96593.61;1752198;81;25791;-76
2022/07/31 06:57:10;;;;;;;0.55;0.33;;;;;;;17.22;78.55;96591.98;1752239;81;26031;-76
2022/07/31 06:59:37;;;;;;;0.20;0.20;;;;;;;17.25;78.53;96596.91;1752516;81;25695;-76
2022/07/31 07:02:03;;;;;;;0.70;0.20;;;;;;;17.28;78.69;96597.16;1752543;81;28171;-77
2022/07/31 07:04:30;;;;;;;0.10;0.10;;;;;;;17.27;78.39;96600.16;1752280;81;25686;-76
2022/07/31 07:06:56;;;;;;;2.35;0.30;;;;;;;17.29;78.35;96597.43;1752469;81;25846;-76
2022/07/31 07:09:23;;;;;;;0.25;0.25;;;;;;;17.28;78.28;96607.25;1752466;81;26072;-76
2022/07/31 07:11:49;;;;;;;0.40;0.30;;;;;;;17.30;78.29;96603.70;1752679;81;25968;-76
2022/07/31 07:14:16;;;;;;;0.23;0.23;;;;;;;17.33;78.22;96608.63;1752586;81;28199;-76
2022/07/31 07:16:42;;;;;;;1.25;0.30;;;;;;;17.35;78.17;96606.44;1752534;81;26209;-76
2022/07/31 07:19:09;;;;;;;0.30;0.30;;;;;;;17.36;78.10;96605.36;1752127;81;25777;-76
2022/07/31 07:21:35;;;;;;;0.20;0.20;;;;;;;17.38;78.21;96606.45;1752439;81;26215;-78
2022/07/31 07:24:02;;;;;;;0.10;0.10;;;;;;;17.32;78.28;96608.34;1746406;82;25761;-76
2022/07/31 07:26:30;;;;;;;0.28;0.20;;;;;;;17.31;78.20;96610.80;1747174;82;27390;-76
2022/07/31 07:28:56;;;;;;;0.23;0.10;;;;;;;17.24;78.28;96615.18;1747034;82;25860;-76
2022/07/31 07:31:23;;;;;;;0.20;0.20;;;;;;;17.26;78.31;96611.64;1747039;82;25259;-76
2022/07/31 07:33:50;;;;;;;0.13;0.13;;;;;;;17.23;78.32;96609.98;1747193;82;26009;-76
2022/07/31 07:36:17;;;;;;;0.20;0.20;;;;;;;17.21;78.36;96619.80;1747137;82;25777;-76
2022/07/31 07:38:43;;;;;;;0.17;0.17;;;;;;;17.19;78.42;96619.80;1747180;82;27466;-76
2022/07/31 07:41:10;;;;;;;0.37;0.20;;;;;;;17.18;78.46;96620.88;1747072;82;25860;-77
2022/07/31 07:43:37;;;;;;;0.50;0.30;;;;;;;17.18;78.41;96631.80;1747120;82;25704;-76
2022/07/31 07:46:04;;;;;;;0.20;0.20;;;;;;;17.19;78.43;96623.89;1759492;80;26770;-76
2022/07/31 07:48:30;;;;;;;1.75;0.20;;;;;;;17.17;78.33;96630.98;1777467;80;25727;-77
2022/07/31 07:50:56;;;;;;;1.42;0.20;;;;;;;17.18;78.23;96637.25;1786849;80;27365;-76
2022/07/31 07:53:23;;;;;;;0.10;0.10;;;;;;;17.18;78.08;96637.25;1786837;80;25654;-76
2022/07/31 07:55:50;;;;;;;1.65;0.30;;;;;;;17.19;78.11;96642.44;1786913;80;25783;-76
2022/07/31 07:58:16;;;;;;;0.98;0.30;;;;;;;17.18;78.13;96648.16;1786432;80;26820;-77
2022/07/31 08:00:43;;;;;;;0.20;0.20;;;;;;;17.14;78.07;96657.99;1787072;80;25717;-77
2022/07/31 08:03:09;;;;;;;1.35;0.28;;;;;;;17.10;78.09;96652.25;1786678;80;28136;-76
2022/07/31 08:05:36;;;;;;;0.82;0.30;;;;;;;17.11;78.05;96663.98;1786521;80;25425;-76
2022/07/31 08:08:03;;;;;;;0.50;0.50;;;;;;;17.08;77.89;96661.78;1787008;79;25714;-76
2022/07/31 08:10:29;;;;;;;0.40;0.20;;;;;;;17.08;77.87;96665.33;1786872;80;26023;-77
2022/07/31 08:12:57;;;;;;;1.05;0.37;;;;;;;17.07;77.91;96678.69;1786960;80;26340;-75
2022/07/31 08:15:24;;;;;;;0.40;0.40;;;;;;;17.06;77.63;96673.50;1786736;80;27429;-77
2022/07/31 08:17:51;;;;;;;0.80;0.40;;;;;;;16.99;77.69;96677.05;1786096;80;25681;-77
2022/07/31 08:20:18;;;;;;;1.47;0.23;;;;;;;16.98;77.79;96676.77;1790136;80;25696;-76
2022/07/31 08:22:45;;;;;;;0.30;0.30;;;;;;;16.99;77.82;96680.59;1804088;79;26288;-77
2022/07/31 08:25:12;;;;;;;0.90;0.90;;;;;;;16.99;77.79;96686.05;1804177;79;25803;-76
2022/07/31 08:27:38;;;;;;;1.32;1.22;;;;;;;17.02;77.65;96688.78;1804305;79;28026;-77
2022/07/31 08:30:05;;;;;;;2.72;1.50;;;;;;;17.01;77.62;96684.41;1804000;79;25633;-77
2022/07/31 08:32:32;;;;;;;1.40;1.17;;;;;;;17.02;77.69;96690.97;1804182;79;25710;-76
2022/07/31 08:34:59;;;;;;;1.98;0.50;;;;;;;17.03;77.72;96689.03;1804208;79;26039;-76
2022/07/31 08:37:25;;;;;;;0.47;0.42;;;;;;;17.01;77.78;96685.78;1804044;79;25438;-77
2022/07/31 08:39:52;;;;;;;0.45;0.40;;;;;;;16.96;77.67;96689.30;1803869;79;27631;-76
2022/07/31 08:42:19;;;;;;;0.57;0.30;;;;;;;17.00;77.82;96696.41;1804011;79;25782;-77
2022/07/31 08:44:46;;;;;;;0.40;0.40;;;;;;;17.00;77.75;96690.95;1803995;79;25849;-77
2022/07/31 08:47:15;;;;;;;4.22;1.92;;;;;;;17.02;77.66;96703.23;1804130;79;26070;-79
2022/07/31 08:49:44;;;;;;;4.60;2.17;;;;;;;17.03;77.67;96694.48;1804146;79;25402;-77
2022/07/31 08:52:22;;;;;;;2.52;1.02;;;;;;;17.06;77.72;96699.41;1804052;79;28122;-79
2022/07/31 08:54:52;;;;;;;1.27;0.90;;;;;;;17.03;77.78;96696.66;1802463;79;25461;-78
2022/07/31 08:57:19;;;;;;;0.30;0.28;;;;;;;17.00;77.72;96696.41;1711593;83;25814;-80
2022/07/31 08:59:51;;;;;;;3.62;0.90;;;;;;;16.98;77.62;96697.21;1781185;80;26768;-78
2022/07/31 09:02:14;;;;;;;2.37;1.22;;;;;;;16.95;77.59;96693.11;1777162;80;25888;-77
2022/07/31 09:04:41;;;;;;;1.45;1.00;;;;;;;16.95;77.48;96697.74;1781069;80;28080;-77
2022/07/31 09:07:14;;;;;;;0.70;0.65;;;;;;;16.96;77.49;96698.02;1781030;80;25826;-77
2022/07/31 09:09:46;;;;;;;0.40;0.40;;;;;;;16.98;77.46;96700.76;1778086;80;25749;-76
2022/07/31 09:12:13;;;;;;;0.30;0.30;;;;;;;17.00;77.31;96710.03;1781336;80;25992;-78
2022/07/31 09:14:43;;;;;;;0.70;0.37;;;;;;;17.00;77.28;96701.86;1781094;80;25800;-75
2022/07/31 09:17:14;;;;;;;0.45;0.30;;;;;;;16.95;76.96;96708.11;1777373;80;27463;-76
2022/07/31 09:19:44;;;;;;;0.80;0.30;;;;;;;16.88;76.97;96705.64;1760107;80;25479;-76
2022/07/31 09:22:27;;;;;;;0.42;0.20;;;;;;;16.85;77.14;96703.45;1759633;81;25788;-77
2022/07/31 09:25:10;;;;;;;0.62;0.50;;;;;;;16.83;77.27;96715.16;1759616;81;26828;-74
2022/07/31 09:27:36;;;;;;;0.30;0.30;;;;;;;16.82;77.26;96713.52;1758975;81;25954;-77
2022/07/31 09:30:05;;;;;;;0.30;0.30;;;;;;;16.81;77.36;96714.59;1759703;81;27647;-76
2022/07/31 09:32:31;;;;;;;3.47;3.17;;;;;;;16.82;77.48;96717.61;1759923;81;26339;-77
2022/07/31 09:35:11;;;;;;;0.70;0.40;;;;;;;16.83;77.41;96719.25;1759753;81;25821;-75
2022/07/31 09:37:38;;;;;;;0.20;0.20;;;;;;;16.82;77.40;96721.70;1746197;82;26083;-75
2022/07/31 09:40:08;;;;;;;0.30;0.30;;;;;;;16.83;77.41;96723.87;1746080;82;25756;-76
2022/07/31 09:42:44;;;;;;;0.45;0.30;;;;;;;16.83;77.45;96724.70;1746497;82;27389;-76
2022/07/31 09:45:20;;;;;;;1.95;0.30;;;;;;;16.83;77.41;96732.05;1746142;82;25799;-75
2022/07/31 09:47:49;;;;;;;0.50;0.50;;;;;;;16.82;77.40;96727.14;1691300;84;25743;-77
2022/07/31 09:50:21;;;;;;;0.30;0.30;;;;;;;16.82;77.40;96727.14;1687826;84;26814;-77
2022/07/31 09:52:53;;;;;;;1.37;0.45;;;;;;;16.82;77.34;96726.33;1688318;84;25337;-79
2022/07/31 09:55:20;;;;;;;1.00;0.40;;;;;;;16.81;77.27;96726.86;1752526;81;27395;-76
2022/07/31 09:57:55;;;;;;;0.33;0.33;;;;;;;16.81;77.31;96728.23;1757187;81;25777;-76
2022/07/31 10:00:24;;;;;;;0.40;0.33;;;;;;;16.78;77.43;96736.14;1757294;81;25906;-80
2022/07/31 10:02:54;;;;;;;0.40;0.30;;;;;;;16.76;77.37;96736.41;1757442;81;26056;-75
2022/07/31 10:05:26;;;;;;;0.75;0.42;;;;;;;16.73;77.34;96745.11;1757354;81;25286;-77
2022/07/31 10:07:56;;;;;;;1.87;0.30;;;;;;;16.72;77.23;96746.19;1757402;81;28046;-77
2022/07/31 10:10:23;;;;;;;0.20;0.20;;;;;;;16.72;77.24;96743.46;1757107;81;25967;-79
2022/07/31 10:12:52;;;;;;;0.10;0.10;;;;;;;16.74;77.17;96748.11;1757174;81;25811;-78
2022/07/31 10:15:20;;;;;;;0.53;0.50;;;;;;;16.73;77.07;96748.38;1757222;81;25986;-77
2022/07/31 10:17:49;;;;;;;0.42;0.42;;;;;;;16.70;77.07;96751.08;1757345;81;25611;-78
2022/07/31 10:20:23;;;;;;;1.80;0.80;;;;;;;16.71;77.03;96746.45;1739052;81;27401;-77
2022/07/31 10:23:05;;;;;;;1.07;0.60;;;;;;;16.71;77.02;96750.00;1737980;82;25938;-76
2022/07/31 10:25:35;;;;;;;1.42;0.50;;;;;;;16.72;77.01;96751.64;1658943;86;25898;-76
2022/07/31 10:28:02;;;;;;;1.65;0.70;;;;;;;16.72;77.04;96754.36;1658927;86;25986;-76
2022/07/31 10:30:29;;;;;;;1.42;0.72;;;;;;;16.68;77.22;96751.06;1655116;86;25588;-76
2022/07/31 10:32:57;;;;;;;1.65;0.53;;;;;;;16.68;77.24;96754.61;1658752;86;27423;-78
2022/07/31 10:35:24;;;;;;;1.12;0.70;;;;;;;16.71;77.26;96757.35;1665638;85;25834;-77
2022/07/31 10:38:29;;;;;;;0.70;0.53;;;;;;;16.69;77.30;96754.89;1667022;86;25905;-77
2022/07/31 10:41:18;;;;;;;0.88;0.53;;;;;;;16.73;77.32;96753.83;1667188;86;26011;-75
2022/07/31 10:44:02;;;;;;;0.50;0.47;;;;;;;16.74;77.31;96756.28;1688301;82;25779;-79
2022/07/31 10:46:32;;;;;;;0.30;0.30;;;;;;;16.76;77.35;96757.39;1745402;82;27614;-78
2022/07/31 10:48:59;;;;;;;0.60;0.60;;;;;;;16.76;77.17;96760.93;1745469;82;25678;-77
2022/07/31 10:51:26;;;;;;;2.12;0.80;;;;;;;16.75;77.14;96757.92;1745519;82;25746;-78
2022/07/31 10:54:00;;;;;;;0.60;0.50;;;;;;;16.76;77.10;96756.02;1745649;82;26003;-77
2022/07/31 10:56:28;;;;;;;0.40;0.40;;;;;;;16.75;77.00;96759.83;1673684;85;25916;-76
2022/07/31 10:58:57;;;;;;;1.20;0.40;;;;;;;16.72;77.00;96758.99;1673557;85;27429;-77
2022/07/31 11:01:27;;;;;;;0.25;0.25;;;;;;;16.71;77.00;96765.53;1673587;85;25746;-77
2022/07/31 11:04:03;;;;;;;0.82;0.60;;;;;;;16.72;77.00;96769.89;1673508;85;25845;-76
2022/07/31 11:06:41;;;;;;;0.40;0.40;;;;;;;16.73;77.03;96766.09;1673585;85;26008;-77
2022/07/31 11:09:07;;;;;;;0.20;0.20;;;;;;;16.73;77.02;96770.17;1673501;85;25731;-78
2022/07/31 11:11:36;;;;;;;2.00;0.40;;;;;;;16.72;76.82;96772.62;1673880;85;27442;-77
2022/07/31 11:14:03;;;;;;;0.85;0.40;;;;;;;16.71;76.89;96771.80;1673459;85;25776;-77
2022/07/31 11:16:29;;;;;;;1.75;0.60;;;;;;;16.73;76.91;96771.53;1673760;85;25683;-78
2022/07/31 11:18:59;;;;;;;0.55;0.50;;;;;;;16.71;76.89;96766.34;1673318;85;26054;-77
2022/07/31 11:21:34;;;;;;;1.10;0.80;;;;;;;16.72;76.92;96760.36;1682797;83;25563;-76
2022/07/31 11:24:17;;;;;;;0.70;0.70;;;;;;;16.73;76.97;96765.55;1708694;83;28209;-77
2022/07/31 11:26:57;;;;;;;0.60;0.57;;;;;;;16.73;76.86;96768.81;1708907;83;25684;-77
2022/07/31 11:29:36;;;;;;;0.62;0.30;;;;;;;16.73;76.96;96766.91;1708694;83;25833;-78
2022/07/31 11:34:49;;;;;;;2.45;0.37;;;;;;;16.70;76.72;96767.97;1661799;86;25861;-77
2022/07/31 11:37:21;;;;;;;0.53;0.30;;;;;;;16.68;76.75;96775.59;1661649;86;28288;-78
2022/07/31 11:39:51;;;;;;;0.40;0.28;;;;;;;16.66;76.73;96774.52;1658735;86;26628;-76
2022/07/31 11:42:20;;;;;;;0.62;0.23;;;;;;;16.63;76.67;96781.85;1543701;92;25967;-78
2022/07/31 11:44:46;;;;;;;0.40;0.10;;;;;;;16.62;76.77;96776.13;1543716;92;26005;-76
2022/07/31 11:47:13;;;;;;;0.80;0.30;;;;;;;16.65;76.89;96781.05;1543488;92;25779;-77